createdAt,value
2019-02-12T00:00:24.628Z,97718.91
2019-02-12T00:02:53.778Z,97726.59
2019-02-12T00:05:24.633Z,97730.23
2019-02-12T00:07:53.711Z,97735.02
2019-02-12T00:10:23.948Z,97725.80
2019-02-12T00:12:56.131Z,97735.25
2019-02-12T00:15:28.075Z,97745.42
2019-02-12T00:17:59.579Z,97755.27
2019-02-12T00:20:28.707Z,97755.72
2019-02-12T00:22:57.798Z,97752.70
2019-02-12T00:25:27.292Z,97758.00
2019-02-12T00:27:56.541Z,97759.26
2019-02-12T00:30:28.734Z,97761.94
2019-02-12T00:33:05.366Z,97751.68
2019-02-12T00:35:34.414Z,97755.47
2019-02-12T00:38:10.644Z,97751.91
2019-02-12T00:40:41.074Z,97741.30
2019-02-12T00:43:10.544Z,97755.53
2019-02-12T00:45:42.596Z,97756.33
2019-02-12T00:48:12.852Z,97754.56
2019-02-12T00:50:43.782Z,97748.67
2019-02-12T00:53:15.803Z,97752.70
2019-02-12T00:55:45.309Z,97754.91
2019-02-12T00:58:16.671Z,97752.05
2019-02-12T01:00:45.672Z,97760.74
2019-02-12T01:03:14.779Z,97779.59
2019-02-12T01:05:45.222Z,97788.56
2019-02-12T01:08:15.377Z,97800.69
2019-02-12T01:10:49.925Z,97802.80
2019-02-12T01:13:19.014Z,97806.06
2019-02-12T01:15:48.320Z,97808.66
2019-02-12T01:18:18.710Z,97805.17
2019-02-12T01:20:49.526Z,97803.05
2019-02-12T01:23:23.115Z,97806.20
2019-02-12T01:25:52.439Z,97811.78
2019-02-12T01:28:21.789Z,97810.78
2019-02-12T01:30:50.891Z,97806.42
2019-02-12T01:33:22.934Z,97811.66
2019-02-12T01:35:54.597Z,97811.84
2019-02-12T01:38:23.692Z,97813.33
2019-02-12T01:40:52.847Z,97811.48
2019-02-12T01:43:21.943Z,97815.03
2019-02-12T01:45:52.204Z,97808.66
2019-02-12T01:48:21.295Z,97812.16
2019-02-12T01:50:53.333Z,97811.84
2019-02-12T01:53:24.963Z,97830.86
2019-02-12T01:55:54.087Z,97801.08
2019-02-12T01:58:24.853Z,97801.33
2019-02-12T02:00:56.783Z,97799.88
2019-02-12T02:03:25.980Z,97795.16
2019-02-12T02:05:55.255Z,97796.70
2019-02-12T02:08:24.333Z,97802.14
2019-02-12T02:10:54.350Z,97797.53
2019-02-12T02:13:23.488Z,97806.67
2019-02-12T02:15:52.554Z,97811.96
2019-02-12T02:18:22.025Z,97812.76
2019-02-12T02:20:54.117Z,97808.16
2019-02-12T02:23:25.723Z,97810.28
2019-02-12T02:25:56.599Z,97818.11
2019-02-12T02:28:25.744Z,97816.68
2019-02-12T02:30:55.932Z,97821.19
2019-02-12T02:33:25.372Z,97823.11
2019-02-12T02:35:59.260Z,97820.83
2019-02-12T02:38:31.389Z,97835.33
2019-02-12T02:41:04.086Z,97838.60
2019-02-12T02:43:33.491Z,97836.50
2019-02-12T02:46:04.048Z,97840.06
2019-02-12T02:48:33.572Z,97849.88
2019-02-12T02:51:05.408Z,97855.52
2019-02-12T02:53:34.845Z,97852.47
2019-02-12T02:56:03.968Z,97854.58
2019-02-12T02:58:36.824Z,97856.53
2019-02-12T03:01:08.343Z,97862.80
2019-02-12T03:03:43.373Z,97874.18
2019-02-12T03:06:15.690Z,97870.91
2019-02-12T03:08:44.785Z,97873.09
2019-02-12T03:11:13.871Z,97878.97
2019-02-12T03:13:42.975Z,97877.19
2019-02-12T03:16:12.044Z,97882.80
2019-02-12T03:18:41.124Z,97883.77
2019-02-12T03:21:11.583Z,97885.36
2019-02-12T03:23:40.620Z,97891.34
2019-02-12T03:26:12.208Z,97888.08
2019-02-12T03:28:41.613Z,97891.59
2019-02-12T03:31:13.076Z,97894.81
2019-02-12T03:33:46.908Z,97898.34
2019-02-12T03:36:16.972Z,97902.88
2019-02-12T03:38:51.411Z,97909.74
2019-02-12T03:41:20.617Z,97903.98
2019-02-12T03:43:51.122Z,97908.78
2019-02-12T03:46:20.171Z,97906.56
2019-02-12T03:48:52.672Z,97913.28
2019-02-12T03:51:24.841Z,97912.48
2019-02-12T03:53:53.918Z,97904.97
2019-02-12T03:56:23.482Z,97906.09
2019-02-12T03:58:52.758Z,97910.89
2019-02-12T04:01:21.971Z,97916.77
2019-02-12T04:03:51.323Z,97909.62
2019-02-12T04:06:20.441Z,96375.80
2019-02-12T04:08:51.138Z,97924.30
2019-02-12T04:11:20.575Z,97918.17
2019-02-12T04:13:52.632Z,97921.54
2019-02-12T04:16:23.353Z,97911.98
2019-02-12T04:18:52.496Z,97915.66
2019-02-12T04:21:24.473Z,97919.16
2019-02-12T04:23:53.618Z,97912.27
2019-02-12T04:26:24.150Z,97913.67
2019-02-12T04:28:55.726Z,97918.92
2019-02-12T04:31:25.683Z,97925.35
2019-02-12T04:33:54.937Z,97926.27
2019-02-12T04:36:24.049Z,97928.11
2019-02-12T04:38:53.322Z,97921.67
2019-02-12T04:41:24.088Z,97931.09
2019-02-12T04:43:53.374Z,97924.70
2019-02-12T04:46:28.060Z,97924.81
2019-02-12T04:49:03.411Z,97925.92
2019-02-12T04:51:33.019Z,97928.23
2019-02-12T04:54:21.357Z,97929.48
2019-02-12T04:56:50.463Z,97947.36
2019-02-12T04:59:19.557Z,97928.08
2019-02-12T05:01:50.005Z,97929.98
2019-02-12T05:04:21.609Z,97920.87
2019-02-12T05:06:50.705Z,97915.39
2019-02-12T05:09:26.895Z,97923.54
2019-02-12T05:12:03.086Z,97920.58
2019-02-12T05:14:33.759Z,97918.84
2019-02-12T05:17:02.909Z,97919.67
2019-02-12T05:19:32.032Z,97920.38
2019-02-12T05:22:01.775Z,97923.24
2019-02-12T05:24:36.982Z,97921.76
2019-02-12T05:27:06.130Z,97915.64
2019-02-12T05:29:36.741Z,97916.50
2019-02-12T05:32:08.478Z,97913.68
2019-02-12T05:34:40.381Z,97921.67
2019-02-12T05:37:09.468Z,97927.34
2019-02-12T05:39:42.034Z,97932.00
2019-02-12T05:42:16.331Z,97931.25
2019-02-12T05:44:45.589Z,97937.19
2019-02-12T05:47:18.721Z,97951.22
2019-02-12T05:49:47.940Z,97943.81
2019-02-12T05:52:17.095Z,97948.28
2019-02-12T05:54:50.764Z,97951.42
2019-02-12T05:57:19.903Z,97949.80
2019-02-12T05:59:48.995Z,97946.96
2019-02-12T06:02:18.077Z,97985.45
2019-02-12T06:04:47.292Z,97945.98
2019-02-12T06:07:19.246Z,97949.54
2019-02-12T06:09:51.434Z,97948.94
2019-02-12T06:12:20.593Z,97950.34
2019-02-12T06:17:24.098Z,97961.98
2019-02-12T06:19:55.755Z,97968.27
2019-02-12T06:22:24.601Z,97966.97
2019-02-12T06:24:56.998Z,97964.38
2019-02-12T06:27:27.684Z,97964.85
2019-02-12T06:29:58.384Z,97959.48
2019-02-12T06:32:29.337Z,97959.69
2019-02-12T06:35:01.398Z,97959.33
2019-02-12T06:37:37.222Z,97962.70
2019-02-12T06:40:07.116Z,97962.50
2019-02-12T06:42:41.137Z,97963.06
2019-02-12T06:45:10.533Z,97969.16
2019-02-12T06:47:45.112Z,97976.18
2019-02-12T06:50:14.699Z,97974.55
2019-02-12T06:52:46.044Z,96421.20
2019-02-12T06:55:15.482Z,97991.22
2019-02-12T06:57:51.511Z,97978.96
2019-02-12T07:00:20.858Z,97970.18
2019-02-12T07:03:30.002Z,97976.46
2019-02-12T07:06:08.947Z,97976.66
2019-02-12T07:09:15.614Z,97990.36
2019-02-12T07:12:33.933Z,97995.53
2019-02-12T07:15:22.125Z,97988.95
2019-02-12T07:18:46.042Z,97986.29
2019-02-12T07:22:11.495Z,97989.98
2019-02-12T07:25:24.934Z,97985.22
2019-02-12T07:28:45.209Z,97993.08
2019-02-12T07:32:15.706Z,97998.94
2019-02-12T07:35:17.880Z,98004.06
2019-02-12T07:38:36.425Z,98020.63
2019-02-12T07:41:39.127Z,98022.48
2019-02-12T07:44:55.983Z,98030.00
2019-02-12T07:48:19.820Z,98037.47
2019-02-12T07:51:13.226Z,98067.58
2019-02-12T07:54:26.341Z,98046.42
2019-02-12T07:57:35.068Z,98041.11
2019-02-12T08:00:34.420Z,98046.88
2019-02-12T08:03:40.393Z,98047.88
2019-02-12T08:06:34.179Z,98050.27
2019-02-12T08:09:40.211Z,98059.08
2019-02-12T08:12:46.242Z,98064.74
2019-02-12T08:15:58.975Z,96915.50
2019-02-12T08:19:07.426Z,98070.84
2019-02-12T08:22:03.096Z,98073.86
2019-02-12T08:25:00.092Z,98073.09
2019-02-12T08:28:12.705Z,98077.43
2019-02-12T08:31:13.262Z,98081.34
2019-02-12T08:33:58.086Z,98080.93
2019-02-12T08:37:05.989Z,98086.23
2019-02-12T08:40:21.335Z,98095.70
2019-02-12T08:43:09.685Z,98097.98
2019-02-12T08:46:15.494Z,98096.18
2019-02-12T08:48:57.211Z,98097.52
2019-02-12T08:52:13.355Z,98100.12
2019-02-12T08:55:16.851Z,98104.31
2019-02-12T08:58:41.331Z,98101.06
2019-02-12T09:01:57.127Z,98111.58
2019-02-12T09:04:53.920Z,98116.62
2019-02-12T09:07:40.895Z,98118.42
2019-02-12T09:10:32.351Z,98128.28
2019-02-12T09:13:31.837Z,98127.70
2019-02-12T09:16:38.752Z,98124.44
2019-02-12T09:19:29.252Z,98134.66
2019-02-12T09:22:32.883Z,98129.70
2019-02-12T09:25:32.591Z,98130.01
2019-02-12T09:28:36.187Z,98138.58
2019-02-12T09:31:44.547Z,98130.93
2019-02-12T09:34:56.974Z,98140.15
2019-02-12T09:37:53.721Z,98135.50
2019-02-12T09:40:48.545Z,98134.48
2019-02-12T09:43:49.677Z,98135.68
2019-02-12T09:46:58.129Z,98131.19
2019-02-12T09:50:12.675Z,98140.34
2019-02-12T09:53:08.860Z,98145.14
2019-02-12T09:56:10.371Z,98148.96
2019-02-12T09:59:17.330Z,98144.77
2019-02-12T10:02:02.672Z,98141.68
2019-02-12T10:05:14.421Z,98141.53
2019-02-12T10:08:05.762Z,98143.94
2019-02-12T10:10:52.284Z,98147.47
2019-02-12T10:13:55.246Z,98151.83
2019-02-12T10:17:00.004Z,98172.43
2019-02-12T10:19:53.877Z,98163.13
2019-02-12T10:22:59.151Z,98161.56
2019-02-12T10:25:40.795Z,98162.59
2019-02-12T10:28:36.320Z,98160.17
2019-02-12T10:31:40.911Z,98166.45
2019-02-12T10:34:10.574Z,98167.20
2019-02-12T10:36:42.748Z,98171.98
2019-02-12T10:39:17.751Z,98175.72
2019-02-12T10:41:51.384Z,98175.14
2019-02-12T10:44:22.258Z,98173.75
2019-02-12T10:46:52.760Z,98179.45
2019-02-12T10:49:26.444Z,98184.27
2019-02-12T10:51:56.674Z,98195.55
2019-02-12T10:54:28.345Z,97858.41
2019-02-12T10:56:57.554Z,98184.42
2019-02-12T10:59:26.813Z,98189.50
2019-02-12T11:02:00.091Z,98184.80
2019-02-12T11:04:30.918Z,98178.77
2019-02-12T11:07:03.019Z,98166.93
2019-02-12T11:09:37.646Z,98169.69
2019-02-12T11:12:07.649Z,98170.52
2019-02-12T11:14:37.632Z,98200.27
2019-02-12T11:17:10.475Z,98164.11
2019-02-12T11:19:43.527Z,98166.63
2019-02-12T11:22:15.123Z,98172.03
2019-02-12T11:24:44.261Z,98163.95
2019-02-12T11:27:15.594Z,98173.81
2019-02-12T11:29:46.534Z,98175.33
2019-02-12T11:32:19.770Z,98173.48
2019-02-12T11:34:48.873Z,98179.97
2019-02-12T11:37:18.143Z,98185.58
2019-02-12T11:39:48.119Z,98187.52
2019-02-12T11:42:32.632Z,98187.92
2019-02-12T11:45:01.921Z,98189.97
2019-02-12T11:47:31.018Z,98192.05
2019-02-12T11:50:01.344Z,98196.69
2019-02-12T11:52:34.430Z,98189.66
2019-02-12T11:55:06.999Z,98191.46
2019-02-12T11:57:40.617Z,98192.97
2019-02-12T12:00:15.594Z,98194.21
2019-02-12T12:02:49.152Z,98191.52
2019-02-12T12:05:18.483Z,98193.77
2019-02-12T12:07:47.958Z,98187.80
2019-02-12T12:10:29.320Z,98200.98
2019-02-12T12:12:58.801Z,98192.47
2019-02-12T12:15:28.462Z,98191.88
2019-02-12T12:17:58.546Z,98194.09
2019-02-12T12:20:27.705Z,98190.88
2019-02-12T12:22:59.240Z,98191.74
2019-02-12T12:25:31.941Z,98190.86
2019-02-12T12:28:03.195Z,98187.89
2019-02-12T12:30:33.771Z,98195.52
2019-02-12T12:33:09.180Z,98189.10
2019-02-12T12:35:39.451Z,98081.91
2019-02-12T12:38:08.566Z,98188.27
2019-02-12T12:40:42.534Z,98192.70
2019-02-12T12:43:15.401Z,98193.59
2019-02-12T12:45:48.971Z,98191.16
2019-02-12T12:48:18.557Z,97841.55
2019-02-12T12:50:47.754Z,98184.64
2019-02-12T12:53:18.024Z,98182.92
2019-02-12T12:55:49.732Z,98190.59
2019-02-12T12:58:20.488Z,98186.51
2019-02-12T13:00:49.912Z,98181.63
2019-02-12T13:03:22.610Z,98183.20
2019-02-12T13:05:51.773Z,98177.48
2019-02-12T13:08:22.063Z,96951.80
2019-02-12T13:10:51.463Z,98183.34
2019-02-12T13:13:28.971Z,97843.30
2019-02-12T13:15:58.417Z,98183.90
2019-02-12T13:18:27.567Z,98178.86
2019-02-12T13:21:01.383Z,98181.04
2019-02-12T13:23:32.438Z,98186.52
2019-02-12T13:26:02.050Z,98182.08
2019-02-12T13:28:34.474Z,98215.77
2019-02-12T13:31:05.355Z,98187.44
2019-02-12T13:33:35.103Z,98181.03
2019-02-12T13:36:04.682Z,98184.67
2019-02-12T13:38:35.555Z,98187.07
2019-02-12T13:41:08.325Z,98183.86
2019-02-12T13:43:40.749Z,98185.39
2019-02-12T13:46:11.219Z,98178.64
2019-02-12T13:48:43.083Z,98181.55
2019-02-12T13:51:18.015Z,98181.14
2019-02-12T13:53:48.322Z,98174.34
2019-02-12T13:56:17.818Z,98181.28
2019-02-12T13:58:57.119Z,98178.06
2019-02-12T14:01:32.353Z,98184.63
2019-02-12T14:03:57.347Z,98183.69
2019-02-12T14:06:29.229Z,98183.83
2019-02-12T14:08:58.450Z,98178.37
2019-02-12T14:11:28.759Z,98188.08
2019-02-12T14:13:57.803Z,98184.27
2019-02-12T14:16:33.342Z,98189.61
2019-02-12T14:19:05.528Z,98200.73
2019-02-12T14:21:38.951Z,98197.86
2019-02-12T14:24:08.108Z,98204.19
2019-02-12T14:26:37.482Z,98203.55
2019-02-12T14:29:07.923Z,98210.53
2019-02-12T14:31:37.145Z,98217.66
2019-02-12T14:34:07.214Z,98206.69
2019-02-12T14:36:38.204Z,98206.73
2019-02-12T14:39:07.336Z,98216.03
2019-02-12T14:41:36.430Z,98214.98
2019-02-12T14:44:05.550Z,98214.86
2019-02-12T14:46:36.267Z,98213.55
2019-02-12T14:49:08.903Z,98216.13
2019-02-12T14:51:39.885Z,98217.39
2019-02-12T14:54:08.993Z,98214.97
2019-02-12T14:56:38.243Z,98219.28
2019-02-12T14:59:07.647Z,98208.59
2019-02-12T15:01:36.794Z,98214.03
2019-02-12T15:04:07.615Z,98216.13
2019-02-12T15:06:39.564Z,98215.17
2019-02-12T15:09:08.912Z,98207.00
2019-02-12T15:11:38.010Z,98199.53
2019-02-12T15:14:07.241Z,98201.41
2019-02-12T15:16:36.334Z,98197.19
2019-02-12T15:19:05.471Z,98203.77
2019-02-12T15:21:37.381Z,98202.06
2019-02-12T15:24:07.881Z,98204.95
2019-02-12T15:26:37.454Z,98201.06
2019-02-12T15:29:07.365Z,98197.41
2019-02-12T15:31:39.748Z,98207.86
2019-02-12T15:34:11.278Z,98203.17
2019-02-12T15:36:40.655Z,98204.69
2019-02-12T15:39:09.775Z,98202.63
2019-02-12T15:41:39.946Z,98211.30
2019-02-12T15:44:11.978Z,98203.39
2019-02-12T15:46:41.112Z,98204.88
2019-02-12T15:49:16.881Z,98208.89
2019-02-12T15:51:49.110Z,98139.72
2019-02-12T15:54:20.088Z,98200.89
2019-02-12T15:56:51.797Z,98209.37
2019-02-12T15:59:27.132Z,97760.59
2019-02-12T16:01:56.232Z,98205.45
2019-02-12T16:04:25.851Z,98209.01
2019-02-12T16:06:57.491Z,98210.19
2019-02-12T16:09:31.149Z,98210.30
2019-02-12T16:12:04.058Z,98210.69
2019-02-12T16:14:34.001Z,98165.05
2019-02-12T16:17:05.603Z,98215.20
2019-02-12T16:19:34.740Z,98217.87
2019-02-12T16:22:07.970Z,98222.80
2019-02-12T16:24:37.825Z,98223.73
2019-02-12T16:27:09.127Z,98220.55
2019-02-12T16:29:40.588Z,98223.34
2019-02-12T16:35:03.608Z,98223.40
2019-02-12T16:37:32.830Z,98222.59
2019-02-12T16:40:23.893Z,98220.23
2019-02-12T16:42:56.082Z,98224.83
2019-02-12T16:45:32.526Z,98232.54
2019-02-12T16:48:02.797Z,98236.20
2019-02-12T16:50:32.709Z,98233.73
2019-02-12T16:53:04.909Z,98244.19
2019-02-12T16:55:34.599Z,98250.50
2019-02-12T16:58:03.923Z,98253.03
2019-02-12T17:00:34.137Z,98256.72
2019-02-12T17:03:03.255Z,98259.96
2019-02-12T17:05:39.188Z,98270.02
2019-02-12T17:08:08.871Z,98266.16
2019-02-12T17:10:38.391Z,98269.23
2019-02-12T17:13:07.519Z,98271.33
2019-02-12T17:15:38.506Z,98278.39
2019-02-12T17:18:07.617Z,98280.30
2019-02-12T17:20:36.841Z,98277.58
2019-02-12T17:23:11.331Z,98284.95
2019-02-12T17:25:40.744Z,98284.47
2019-02-12T17:28:10.241Z,98290.22
2019-02-12T17:30:42.173Z,98295.17
2019-02-12T17:33:15.772Z,98302.66
2019-02-12T17:35:48.588Z,98299.77
2019-02-12T17:38:19.230Z,98300.87
2019-02-12T17:40:48.412Z,98300.55
2019-02-12T17:43:17.521Z,98306.68
2019-02-12T17:45:50.227Z,98308.09
2019-02-12T17:48:22.255Z,98309.72
2019-02-12T17:50:57.801Z,98314.53
2019-02-12T17:53:40.200Z,98311.86
2019-02-12T17:56:11.964Z,98309.45
2019-02-12T17:58:41.105Z,98311.53
2019-02-12T18:01:10.517Z,98305.47
2019-02-12T18:03:39.666Z,98311.18
2019-02-12T18:06:14.111Z,98312.17
2019-02-12T18:08:46.266Z,98342.37
2019-02-12T18:11:15.626Z,98316.09
2019-02-12T18:13:45.291Z,98316.30
2019-02-12T18:16:17.631Z,98309.11
2019-02-12T18:18:50.360Z,98317.90
2019-02-12T18:21:25.404Z,98320.75
2019-02-12T18:24:02.515Z,98319.16
2019-02-12T18:26:33.535Z,98329.35
2019-02-12T18:29:02.856Z,98329.13
2019-02-12T18:31:35.995Z,98332.00
2019-02-12T18:34:05.201Z,98331.87
2019-02-12T18:36:34.266Z,98337.70
2019-02-12T18:39:04.072Z,98346.58
2019-02-12T18:41:33.199Z,98346.97
2019-02-12T18:44:02.295Z,98355.86
2019-02-12T18:46:31.442Z,98359.66
2019-02-12T18:49:00.578Z,98363.98
2019-02-12T18:51:29.635Z,98353.77
2019-02-12T18:54:02.297Z,98352.05
2019-02-12T18:56:32.429Z,98349.68
2019-02-12T18:59:01.616Z,98349.69
2019-02-12T19:01:32.520Z,96921.80
2019-02-12T19:04:05.289Z,98344.19
2019-02-12T19:06:36.241Z,98352.55
2019-02-12T19:09:14.113Z,98353.31
2019-02-12T19:11:52.798Z,98351.32
2019-02-12T19:14:14.401Z,98358.61
2019-02-12T19:16:44.474Z,98351.91
2019-02-12T19:19:13.592Z,98343.69
2019-02-12T19:21:45.565Z,98348.68
2019-02-12T19:24:14.684Z,98348.75
2019-02-12T19:26:49.995Z,98359.26
2019-02-12T19:29:20.136Z,98361.57
2019-02-12T19:31:49.359Z,98363.69
2019-02-12T19:34:20.481Z,98354.44
2019-02-12T19:36:49.593Z,98349.97
2019-02-12T19:39:20.167Z,98353.13
2019-02-12T19:41:50.741Z,98359.45
2019-02-12T19:44:19.897Z,98361.34
2019-02-12T19:46:49.030Z,98359.84
2019-02-12T19:49:18.135Z,98359.25
2019-02-12T19:51:48.407Z,98359.92
2019-02-12T19:54:19.893Z,98364.75
2019-02-12T19:56:49.306Z,98364.70
2019-02-12T19:59:21.926Z,98379.87
2019-02-12T20:01:51.151Z,98372.34
2019-02-12T20:04:22.209Z,98372.71
2019-02-12T20:06:52.274Z,98377.91
2019-02-12T20:09:22.698Z,98382.61
2019-02-12T20:11:51.808Z,98385.52
2019-02-12T20:14:21.929Z,98394.44
2019-02-12T20:16:53.784Z,98388.22
2019-02-12T20:19:24.061Z,98372.84
2019-02-12T20:21:55.612Z,98370.27
2019-02-12T20:24:24.722Z,98370.72
2019-02-12T20:26:55.231Z,98363.42
2019-02-12T20:29:30.272Z,98360.15
2019-02-12T20:31:59.385Z,98354.84
2019-02-12T20:34:36.004Z,98360.09
2019-02-12T20:37:05.764Z,98369.71
2019-02-12T20:39:39.303Z,98359.06
2019-02-12T20:42:08.471Z,98358.98
2019-02-12T20:44:47.178Z,98358.71
2019-02-12T20:47:19.316Z,98358.18
2019-02-12T20:49:50.467Z,98362.31
2019-02-12T20:52:20.100Z,98362.41
2019-02-12T20:54:52.464Z,98370.81
2019-02-12T20:57:21.714Z,98370.83
2019-02-12T20:59:50.912Z,98371.84
2019-02-12T21:02:21.429Z,98373.15
2019-02-12T21:04:50.605Z,98371.42
2019-02-12T21:07:22.957Z,98386.59
2019-02-12T21:09:52.030Z,98380.28
2019-02-12T21:12:22.325Z,98375.14
2019-02-12T21:14:51.411Z,98378.16
2019-02-12T21:17:24.249Z,98378.53
2019-02-12T21:19:53.377Z,98380.70
2019-02-12T21:22:23.418Z,98381.30
2019-02-12T21:24:55.213Z,98381.74
2019-02-12T21:27:25.534Z,98393.12
2019-02-12T21:29:58.370Z,98394.11
2019-02-12T21:32:27.563Z,98389.03
2019-02-12T21:34:56.773Z,98389.01
2019-02-12T21:37:27.776Z,98383.47
2019-02-12T21:39:57.963Z,98382.84
2019-02-12T21:42:27.088Z,98385.45
2019-02-12T21:44:58.667Z,98386.55
2019-02-12T21:47:29.729Z,98390.92
2019-02-12T21:50:00.289Z,98384.16
2019-02-12T21:52:31.106Z,98397.17
2019-02-12T21:55:00.303Z,98398.06
2019-02-12T21:57:31.877Z,98389.44
2019-02-12T22:00:01.336Z,98400.22
2019-02-12T22:02:32.349Z,98396.95
2019-02-12T22:05:01.457Z,98395.18
2019-02-12T22:07:31.886Z,98393.53
2019-02-12T22:10:01.509Z,98399.41
2019-02-12T22:12:30.622Z,98389.08
2019-02-12T22:14:59.704Z,98386.22
2019-02-12T22:17:31.009Z,98389.91
2019-02-12T22:20:02.269Z,98382.05
2019-02-12T22:22:34.415Z,98379.36
2019-02-12T22:25:03.618Z,98372.71
2019-02-12T22:27:40.199Z,98382.02
2019-02-12T22:30:11.689Z,98392.00
2019-02-12T22:32:40.820Z,98393.56
2019-02-12T22:35:09.912Z,98402.08
2019-02-12T22:37:39.023Z,98401.69
2019-02-12T22:40:08.739Z,98392.39
2019-02-12T22:42:43.407Z,98391.60
2019-02-12T22:45:20.246Z,98398.58
2019-02-12T22:47:49.672Z,98396.03
2019-02-12T22:50:19.104Z,98396.69
2019-02-12T22:52:48.743Z,98182.92
2019-02-12T22:55:17.853Z,98399.41
2019-02-12T22:57:51.004Z,98395.24
2019-02-12T23:00:55.073Z,98387.73
2019-02-12T23:03:27.810Z,98393.37
2019-02-12T23:06:01.170Z,98394.77
2019-02-12T23:08:34.645Z,98401.97
2019-02-12T23:11:08.412Z,98381.48
2019-02-12T23:13:37.810Z,98385.72
2019-02-12T23:16:06.950Z,98396.56
2019-02-12T23:18:38.117Z,98387.45
2019-02-12T23:21:09.771Z,98377.86
2019-02-12T23:23:45.464Z,98374.51
2019-02-12T23:26:18.476Z,98371.01
2019-02-12T23:28:49.220Z,98372.22
2019-02-12T23:31:18.338Z,98379.14
2019-02-12T23:33:48.056Z,98387.40
2019-02-12T23:36:23.143Z,98390.89
2019-02-12T23:38:52.304Z,98374.88
2019-02-12T23:41:21.480Z,98381.81
2019-02-12T23:43:50.878Z,98382.02
2019-02-12T23:46:28.340Z,98378.08
2019-02-12T23:48:57.491Z,98378.04
2019-02-12T23:51:31.171Z,98379.80
2019-02-12T23:54:00.292Z,98383.48
2019-02-12T23:56:31.280Z,98384.89
2019-02-12T23:59:00.382Z,98385.77
